#dbistima — V2PX5 — position and weather

sailwx.info

Track history (hours):
 
Tides and Currents Weather Stations Pressure Air Temp Water Temp Dewpoint Dewpoint Depression Visibility Wind Speed Wind Dir Waves Ship Positions

#dbistima

Last reported at 2014-Nov-21 23:19 UTC. Time now 2014-Nov-27 02:52 UTC.
Position N 55°40' E 015°32'.

MMSI: 304010972.

Date/timePositionNaut miles runAvg speedWind from/ knotsBaromVisibWave heightAir tempDewpointWater temp
2014-Nov-21 23:19N 55°40' E 015°32'810.0
2014-Nov-21 22:33N 55°36' E 015°21'10 9.9
2014-Nov-21 21:31N 55°31' E 015°05'1010.1
2014-Nov-21 20:33N 55°26' E 014°50'1010.1
2014-Nov-21 19:32N 55°21' E 014°35'1010.3
2014-Nov-21 18:31N 55°13' E 014°22'5210.1
2014-Nov-21 13:25N 55°15' E 012°52'910.1
2014-Nov-21 12:33N 55°19' E 012°38'1110.8
2014-Nov-21 11:33N 55°29' E 012°41'1010.5
2014-Nov-21 10:33N 55°40' E 012°41'6 6.2
2014-Nov-21 09:32N 55°46' E 012°40'0 0.0
2014-Nov-21 08:26N 55°46' E 012°40'0 0.0
2014-Nov-21 07:32N 55°46' E 012°40'0 0.0
2014-Nov-21 06:32N 55°46' E 012°40'0 0.0
2014-Nov-21 05:32N 55°46' E 012°40'5 4.9
2014-Nov-21 04:33N 55°51' E 012°39'8 8.1
2014-Nov-21 03:33N 55°59' E 012°37'7 6.6
2014-Nov-21 02:33N 56°05' E 012°35'7 6.8
2014-Nov-21 01:33N 56°09' E 012°25'7 7.0
2014-Nov-21 00:33N 56°13' E 012°15'8 8.0
2014-Nov-20 23:33N 56°18' E 012°03'  
2014-Nov-15 03:33N 57°47' E 010°42'8 7.5
2014-Nov-15 02:30N 57°46' E 010°27'273 8.8
2014-Nov-13 19:20N 54°18' E 005°11'8 9.8
2014-Nov-13 18:30N 54°11' E 005°04'9 9.5
2014-Nov-13 17:31N 54°02' E 004°58'29 9.5
2014-Nov-13 14:25N 53°33' E 004°48'11 9.4
2014-Nov-13 13:17N 53°24' E 004°40'18 9.7
2014-Nov-13 11:27N 53°07' E 004°28'1010.1
2014-Nov-13 10:29N 52°59' E 004°20'1010.6
2014-Nov-13 09:33N 52°50' E 004°13'1110.8
2014-Nov-13 08:33N 52°41' E 004°02'1110.9
2014-Nov-13 07:33N 52°31' E 003°57'1111.0
2014-Nov-13 06:33N 52°20' E 003°52'1111.2
2014-Nov-13 05:33N 52°09' E 003°54'9 8.8
2014-Nov-13 04:33N 52°01' E 003°59'1010.1
2014-Nov-13 03:33N 51°56' E 004°13'7 6.8
2014-Nov-13 02:31N 51°54' E 004°25'0 0.0
2014-Nov-13 01:31N 51°54' E 004°25'0 0.0
2014-Nov-13 00:33N 51°54' E 004°25'0 0.0
2014-Nov-12 23:34N 51°54' E 004°25'0 0.0
2014-Nov-12 22:34N 51°54' E 004°25'0 0.0
2014-Nov-12 21:34N 51°54' E 004°25'0 0.0
2014-Nov-12 20:33N 51°54' E 004°25'0 0.0
2014-Nov-12 19:34N 51°54' E 004°25'0 0.2
2014-Nov-12 18:34N 51°55' E 004°25'0 0.0
2014-Nov-12 17:34N 51°55' E 004°25'0 0.0
2014-Nov-12 16:34N 51°55' E 004°25'0 0.0
2014-Nov-12 15:33N 51°55' E 004°25'0 0.1
2014-Nov-12 14:34N 51°55' E 004°25'5 5.2
2014-Nov-12 13:33N 51°54' E 004°16'8 7.9
2014-Nov-12 12:34N 51°59' E 004°06'9 9.1
2014-Nov-12 11:34N 52°01' E 003°52'8 7.5
2014-Nov-12 10:32N 52°08' E 003°46'7 6.5
2014-Nov-12 09:31N 52°12' E 003°39'7 6.1
2014-Nov-12 08:25N 52°18' E 003°45'9 9.9
2014-Nov-12 07:32N 52°26' E 003°50'10 9.5
2014-Nov-12 06:29N 52°36' E 003°53'8 9.1
2014-Nov-12 05:34N 52°44' E 003°56'9 9.2
2014-Nov-12 04:34N 52°53' E 003°59'10 9.7
2014-Nov-12 03:32N 53°01' E 004°08'310.7
2014-Nov-12 03:13N 53°04' E 004°12'811.2
2014-Nov-12 02:31N 53°09' E 004°21'3110.3
2014-Nov-11 23:32N 53°32' E 004°56'  
Track history (hours):
 
Tides and Currents Weather Stations Pressure Air Temp Water Temp Dewpoint Dewpoint Depression Visibility Wind Speed Wind Dir Waves Ship Positions

#dbistima

Last reported at 2014-Nov-21 23:19 UTC. Time now 2014-Nov-27 02:52 UTC.
Position N 55°40' E 015°32'.

MMSI: 304010972.

Date/timePositionNaut miles runAvg speedWind from/ knotsBaromVisibWave heightAir tempDewpointWater temp
2014-Nov-21 23:19N 55°40' E 015°32'810.0
2014-Nov-21 22:33N 55°36' E 015°21'10 9.9
2014-Nov-21 21:31N 55°31' E 015°05'1010.1
2014-Nov-21 20:33N 55°26' E 014°50'1010.1
2014-Nov-21 19:32N 55°21' E 014°35'1010.3
2014-Nov-21 18:31N 55°13' E 014°22'5210.1
2014-Nov-21 13:25N 55°15' E 012°52'910.1
2014-Nov-21 12:33N 55°19' E 012°38'1110.8
2014-Nov-21 11:33N 55°29' E 012°41'1010.5
2014-Nov-21 10:33N 55°40' E 012°41'6 6.2
2014-Nov-21 09:32N 55°46' E 012°40'0 0.0
2014-Nov-21 08:26N 55°46' E 012°40'0 0.0
2014-Nov-21 07:32N 55°46' E 012°40'0 0.0
2014-Nov-21 06:32N 55°46' E 012°40'0 0.0
2014-Nov-21 05:32N 55°46' E 012°40'5 4.9
2014-Nov-21 04:33N 55°51' E 012°39'8 8.1
2014-Nov-21 03:33N 55°59' E 012°37'7 6.6
2014-Nov-21 02:33N 56°05' E 012°35'7 6.8
2014-Nov-21 01:33N 56°09' E 012°25'7 7.0
2014-Nov-21 00:33N 56°13' E 012°15'8 8.0
2014-Nov-20 23:33N 56°18' E 012°03'  
2014-Nov-15 03:33N 57°47' E 010°42'8 7.5
2014-Nov-15 02:30N 57°46' E 010°27'273 8.8
2014-Nov-13 19:20N 54°18' E 005°11'8 9.8
2014-Nov-13 18:30N 54°11' E 005°04'9 9.5
2014-Nov-13 17:31N 54°02' E 004°58'29 9.5
2014-Nov-13 14:25N 53°33' E 004°48'11 9.4
2014-Nov-13 13:17N 53°24' E 004°40'18 9.7
2014-Nov-13 11:27N 53°07' E 004°28'1010.1
2014-Nov-13 10:29N 52°59' E 004°20'1010.6
2014-Nov-13 09:33N 52°50' E 004°13'1110.8
2014-Nov-13 08:33N 52°41' E 004°02'1110.9
2014-Nov-13 07:33N 52°31' E 003°57'1111.0
2014-Nov-13 06:33N 52°20' E 003°52'1111.2
2014-Nov-13 05:33N 52°09' E 003°54'9 8.8
2014-Nov-13 04:33N 52°01' E 003°59'1010.1
2014-Nov-13 03:33N 51°56' E 004°13'7 6.8
2014-Nov-13 02:31N 51°54' E 004°25'0 0.0
2014-Nov-13 01:31N 51°54' E 004°25'0 0.0
2014-Nov-13 00:33N 51°54' E 004°25'0 0.0
2014-Nov-12 23:34N 51°54' E 004°25'0 0.0
2014-Nov-12 22:34N 51°54' E 004°25'0 0.0
2014-Nov-12 21:34N 51°54' E 004°25'0 0.0
2014-Nov-12 20:33N 51°54' E 004°25'0 0.0
2014-Nov-12 19:34N 51°54' E 004°25'0 0.2
2014-Nov-12 18:34N 51°55' E 004°25'0 0.0
2014-Nov-12 17:34N 51°55' E 004°25'0 0.0
2014-Nov-12 16:34N 51°55' E 004°25'0 0.0
2014-Nov-12 15:33N 51°55' E 004°25'0 0.1
2014-Nov-12 14:34N 51°55' E 004°25'5 5.2
2014-Nov-12 13:33N 51°54' E 004°16'8 7.9
2014-Nov-12 12:34N 51°59' E 004°06'9 9.1
2014-Nov-12 11:34N 52°01' E 003°52'8 7.5
2014-Nov-12 10:32N 52°08' E 003°46'7 6.5
2014-Nov-12 09:31N 52°12' E 003°39'7 6.1
2014-Nov-12 08:25N 52°18' E 003°45'9 9.9
2014-Nov-12 07:32N 52°26' E 003°50'10 9.5
2014-Nov-12 06:29N 52°36' E 003°53'8 9.1
2014-Nov-12 05:34N 52°44' E 003°56'9 9.2
2014-Nov-12 04:34N 52°53' E 003°59'10 9.7
2014-Nov-12 03:32N 53°01' E 004°08'310.7
2014-Nov-12 03:13N 53°04' E 004°12'811.2
2014-Nov-12 02:31N 53°09' E 004°21'3110.3
2014-Nov-11 23:32N 53°32' E 004°56'  

Dump ship's entire track history